createdAt,value
2023-05-30T00:02:07.267Z,9.67
2023-05-30T00:04:35.449Z,9.90
2023-05-30T00:07:03.996Z,10.10
2023-05-30T00:09:32.066Z,9.70
2023-05-30T00:12:01.291Z,9.80
2023-05-30T00:14:30.661Z,9.80
2023-05-30T00:16:59.477Z,9.80
2023-05-30T00:19:27.545Z,9.90
2023-05-30T00:21:55.801Z,9.77
2023-05-30T00:24:24.191Z,9.60
2023-05-30T00:26:52.186Z,9.63
2023-05-30T00:29:20.167Z,10.07
2023-05-30T00:31:49.575Z,9.90
2023-05-30T00:34:17.960Z,10.10
2023-05-30T00:36:47.547Z,9.73
2023-05-30T00:39:16.157Z,9.63
2023-05-30T00:41:44.748Z,10.20
2023-05-30T00:44:12.955Z,9.70
2023-05-30T00:46:41.480Z,9.73
2023-05-30T00:49:11.144Z,10.20
2023-05-30T00:51:39.360Z,9.60
2023-05-30T00:54:08.705Z,10.63
2023-05-30T00:56:37.492Z,9.93
2023-05-30T00:59:05.704Z,9.80
2023-05-30T01:01:35.105Z,9.90
2023-05-30T01:04:03.779Z,9.90
2023-05-30T01:06:33.781Z,9.63
2023-05-30T01:09:05.548Z,9.87
2023-05-30T01:11:45.202Z,9.70
2023-05-30T01:14:24.824Z,9.93
2023-05-30T01:16:59.006Z,10.07
2023-05-30T01:19:58.053Z,9.87
2023-05-30T01:22:39.584Z,9.73
2023-05-30T01:25:24.973Z,10.13
2023-05-30T01:28:07.832Z,10.00
2023-05-30T01:30:39.820Z,9.83
2023-05-30T01:33:09.650Z,10.00
2023-05-30T01:35:38.292Z,9.93
2023-05-30T01:38:06.453Z,10.37
2023-05-30T01:40:35.097Z,9.90
2023-05-30T01:43:16.545Z,9.70
2023-05-30T01:45:52.476Z,10.00
2023-05-30T01:48:29.717Z,10.17
2023-05-30T01:51:00.772Z,10.03
2023-05-30T01:53:38.934Z,9.70
2023-05-30T01:56:11.491Z,9.60
2023-05-30T01:58:41.690Z,10.00
2023-05-30T02:01:10.742Z,10.07
2023-05-30T02:03:38.912Z,10.13
2023-05-30T02:06:07.333Z,9.73
2023-05-30T02:08:35.426Z,10.17
2023-05-30T02:11:03.479Z,9.90
2023-05-30T02:13:31.520Z,9.70
2023-05-30T02:16:01.297Z,10.10
2023-05-30T02:18:29.382Z,10.10
2023-05-30T02:20:57.560Z,10.00
2023-05-30T02:23:25.749Z,9.90
2023-05-30T02:25:53.770Z,10.27
2023-05-30T02:28:21.806Z,9.90
2023-05-30T02:30:49.878Z,10.10
2023-05-30T02:33:20.380Z,9.93
2023-05-30T02:35:48.525Z,9.67
2023-05-30T02:38:16.561Z,9.90
2023-05-30T02:40:44.560Z,9.90
2023-05-30T02:43:20.422Z,10.40
2023-05-30T02:45:50.245Z,10.27
2023-05-30T02:48:21.517Z,10.20
2023-05-30T02:50:49.791Z,10.33
2023-05-30T02:53:22.639Z,9.73
2023-05-30T02:55:51.447Z,10.10
2023-05-30T02:58:51.988Z,10.17
2023-05-30T03:01:34.257Z,10.13
2023-05-30T03:04:04.446Z,10.00
2023-05-30T03:06:38.685Z,10.20
2023-05-30T03:09:27.939Z,10.20
2023-05-30T03:11:56.025Z,10.13
2023-05-30T03:14:24.045Z,10.03
2023-05-30T03:16:52.023Z,10.30
2023-05-30T03:19:21.341Z,9.97
2023-05-30T03:21:50.748Z,10.07
2023-05-30T03:24:19.888Z,10.00
2023-05-30T03:26:47.907Z,10.20
2023-05-30T03:29:19.498Z,10.17
2023-05-30T03:31:48.530Z,10.27
2023-05-30T03:34:16.676Z,10.13
2023-05-30T03:36:48.218Z,10.23
2023-05-30T03:39:16.472Z,10.27
2023-05-30T03:41:44.454Z,10.10
2023-05-30T03:44:13.373Z,10.20
2023-05-30T03:46:43.068Z,10.63
2023-05-30T03:49:11.094Z,10.27
2023-05-30T03:51:39.133Z,10.50
2023-05-30T03:54:10.677Z,10.20
2023-05-30T03:56:38.726Z,10.40
2023-05-30T03:59:09.884Z,10.50
2023-05-30T04:01:38.628Z,10.30
2023-05-30T04:04:06.765Z,10.50
2023-05-30T04:06:35.575Z,10.37
2023-05-30T04:09:04.750Z,10.50
2023-05-30T04:11:34.422Z,9.93
2023-05-30T04:14:03.483Z,10.10
2023-05-30T04:16:31.601Z,10.10
2023-05-30T04:18:59.644Z,10.40
2023-05-30T04:21:28.889Z,10.37
2023-05-30T04:23:57.601Z,10.57
2023-05-30T04:26:26.463Z,10.93
2023-05-30T04:28:58.873Z,10.37
2023-05-30T04:31:27.631Z,10.20
2023-05-30T04:33:56.853Z,10.40
2023-05-30T04:36:25.267Z,10.43
2023-05-30T04:38:54.912Z,10.03
2023-05-30T04:41:27.184Z,10.30
2023-05-30T04:44:00.525Z,10.70
2023-05-30T04:46:30.550Z,10.30
2023-05-30T04:49:01.794Z,10.43
2023-05-30T04:51:31.200Z,10.87
2023-05-30T04:53:59.251Z,10.40
2023-05-30T04:56:27.678Z,10.83
2023-05-30T04:58:55.879Z,10.20
2023-05-30T05:01:26.561Z,10.47
2023-05-30T05:03:54.785Z,10.33
2023-05-30T05:06:23.050Z,11.07
2023-05-30T05:08:51.128Z,9.90
2023-05-30T05:11:19.218Z,10.50
2023-05-30T05:13:47.216Z,10.67
2023-05-30T05:16:15.243Z,10.30
2023-05-30T05:18:44.622Z,10.37
2023-05-30T05:21:12.617Z,10.07
2023-05-30T05:23:40.961Z,10.20
2023-05-30T05:26:08.994Z,10.37
2023-05-30T05:28:36.964Z,10.27
2023-05-30T05:31:04.969Z,9.87
2023-05-30T05:33:32.988Z,10.37
2023-05-30T05:36:03.398Z,10.40
2023-05-30T05:38:31.424Z,9.90
2023-05-30T05:40:59.626Z,10.40
2023-05-30T05:43:27.784Z,9.80
2023-05-30T05:45:56.740Z,10.10
2023-05-30T05:48:24.945Z,10.10
2023-05-30T05:50:52.935Z,10.00
2023-05-30T05:53:22.254Z,10.37
2023-05-30T05:55:50.251Z,10.60
2023-05-30T05:58:18.272Z,10.00
2023-05-30T06:00:46.369Z,9.90
2023-05-30T06:03:14.911Z,9.80
2023-05-30T06:05:43.026Z,10.10
2023-05-30T06:08:11.205Z,11.13
2023-05-30T06:10:40.651Z,10.40
2023-05-30T06:13:08.698Z,11.63
2023-05-30T06:15:36.753Z,11.17
2023-05-30T06:18:05.686Z,10.10
2023-05-30T06:20:33.890Z,10.40
2023-05-30T06:23:02.018Z,10.27
2023-05-30T06:25:31.511Z,9.87
2023-05-30T06:28:00.948Z,10.70
2023-05-30T06:30:29.020Z,9.43
2023-05-30T06:32:57.202Z,10.10
2023-05-30T06:35:25.657Z,9.70
2023-05-30T06:37:53.810Z,10.17
2023-05-30T06:40:22.070Z,10.23
2023-05-30T06:42:50.240Z,9.70
2023-05-30T06:45:20.821Z,9.90
2023-05-30T06:47:49.159Z,10.17
2023-05-30T06:50:17.356Z,9.33
2023-05-30T06:52:45.395Z,9.63
2023-05-30T06:55:13.660Z,9.87
2023-05-30T06:57:41.675Z,9.60
2023-05-30T07:00:11.488Z,9.90
2023-05-30T07:02:40.938Z,9.90
2023-05-30T07:05:09.407Z,10.03
2023-05-30T07:07:37.879Z,10.23
2023-05-30T07:10:08.166Z,9.63
2023-05-30T07:12:36.427Z,11.23
2023-05-30T07:15:05.119Z,9.90
2023-05-30T07:17:33.311Z,9.80
2023-05-30T07:20:02.976Z,9.60
2023-05-30T07:22:31.094Z,9.93
2023-05-30T07:24:59.213Z,9.23
2023-05-30T07:27:27.942Z,9.60
2023-05-30T07:29:55.994Z,9.60
2023-05-30T07:32:24.029Z,9.60
2023-05-30T07:34:52.092Z,9.40
2023-05-30T07:37:21.465Z,10.00
2023-05-30T07:39:49.505Z,9.30
2023-05-30T07:42:17.689Z,9.40
2023-05-30T07:44:45.723Z,9.63
2023-05-30T07:47:13.765Z,9.63
2023-05-30T07:49:41.763Z,9.20
2023-05-30T07:52:12.109Z,9.43
2023-05-30T07:54:41.496Z,9.40
2023-05-30T07:57:13.981Z,9.00
2023-05-30T07:59:43.024Z,9.33
2023-05-30T08:02:11.146Z,10.00
2023-05-30T08:04:39.785Z,9.10
2023-05-30T08:07:08.292Z,10.33
2023-05-30T08:09:37.479Z,9.40
2023-05-30T08:12:09.153Z,8.87
2023-05-30T08:14:38.408Z,9.33
2023-05-30T08:17:08.087Z,9.27
2023-05-30T08:19:36.644Z,9.10
2023-05-30T08:22:05.367Z,8.47
2023-05-30T08:24:33.425Z,8.97
2023-05-30T08:27:01.585Z,8.90
2023-05-30T08:29:31.640Z,9.73
2023-05-30T08:31:59.685Z,9.53
2023-05-30T08:34:27.774Z,8.80
2023-05-30T08:36:56.432Z,9.73
2023-05-30T08:39:24.522Z,8.80
2023-05-30T08:41:52.625Z,8.90
2023-05-30T08:44:20.919Z,8.60
2023-05-30T08:46:51.253Z,9.00
2023-05-30T08:49:23.642Z,8.73
2023-05-30T08:51:54.493Z,8.70
2023-05-30T08:54:26.996Z,8.60
2023-05-30T08:57:04.759Z,9.90
2023-05-30T08:59:34.189Z,8.97
2023-05-30T09:02:04.996Z,8.80
2023-05-30T09:04:33.892Z,9.13
2023-05-30T09:07:03.825Z,8.97
2023-05-30T09:09:35.615Z,8.50
2023-05-30T09:12:03.977Z,8.50
2023-05-30T09:14:32.232Z,8.80
2023-05-30T09:17:00.886Z,8.90
2023-05-30T09:19:30.329Z,8.50
2023-05-30T09:21:58.982Z,8.80
2023-05-30T09:24:57.627Z,8.70
2023-05-30T09:27:26.857Z,8.83
2023-05-30T09:29:56.080Z,8.77
2023-05-30T09:32:35.705Z,8.60
2023-05-30T09:35:10.464Z,8.70
2023-05-30T09:37:42.150Z,8.93
2023-05-30T09:40:12.920Z,8.50
2023-05-30T09:42:44.307Z,9.00
2023-05-30T09:45:14.816Z,9.00
2023-05-30T09:47:48.815Z,8.87
2023-05-30T09:50:20.566Z,10.83
2023-05-30T09:52:52.786Z,8.77
2023-05-30T09:55:21.672Z,8.40
2023-05-30T09:57:51.562Z,8.27
2023-05-30T10:00:26.833Z,12.83
2023-05-30T10:02:57.329Z,8.47
2023-05-30T10:05:31.483Z,8.77
2023-05-30T10:08:00.616Z,8.83
2023-05-30T10:10:29.765Z,8.63
2023-05-30T10:13:00.759Z,8.30
2023-05-30T10:15:29.494Z,9.20
2023-05-30T10:18:03.041Z,8.50
2023-05-30T10:20:33.770Z,9.03
2023-05-30T10:23:07.456Z,8.37
2023-05-30T10:25:38.446Z,9.00
2023-05-30T10:28:08.896Z,8.50
2023-05-30T10:30:38.453Z,8.50
2023-05-30T10:33:10.102Z,8.67
2023-05-30T10:35:40.121Z,8.20
2023-05-30T10:38:12.244Z,8.47
2023-05-30T10:40:53.389Z,8.80
2023-05-30T10:43:38.314Z,8.97
2023-05-30T10:46:21.732Z,9.13
2023-05-30T10:48:55.431Z,8.70
2023-05-30T10:51:24.934Z,9.17
2023-05-30T10:53:53.631Z,9.33
2023-05-30T10:56:41.789Z,8.80
2023-05-30T10:59:17.111Z,9.30
2023-05-30T11:02:04.054Z,8.73
2023-05-30T11:04:40.137Z,8.90
2023-05-30T11:07:13.484Z,8.83
2023-05-30T11:09:43.148Z,8.70
2023-05-30T11:12:23.090Z,8.40
2023-05-30T11:14:57.682Z,8.70
2023-05-30T11:17:32.823Z,8.23
2023-05-30T11:20:13.737Z,8.47
2023-05-30T11:23:20.160Z,11.03
2023-05-30T11:25:48.313Z,8.90
2023-05-30T11:28:17.994Z,8.93
2023-05-30T11:30:49.093Z,9.00
2023-05-30T11:33:18.777Z,8.87
2023-05-30T11:35:49.859Z,8.53
2023-05-30T11:38:20.719Z,8.60
2023-05-30T11:40:49.366Z,8.50
2023-05-30T11:43:18.614Z,8.40
2023-05-30T11:45:51.083Z,8.60
2023-05-30T11:48:21.377Z,8.70
2023-05-30T11:50:49.640Z,10.20
2023-05-30T11:53:20.096Z,8.77
2023-05-30T11:55:49.231Z,9.00
2023-05-30T11:58:17.903Z,8.50
2023-05-30T12:00:47.652Z,8.90
2023-05-30T12:03:18.174Z,8.73
2023-05-30T12:05:47.868Z,8.73
2023-05-30T12:08:18.023Z,8.27
2023-05-30T12:10:48.043Z,8.67
2023-05-30T12:13:16.105Z,9.30
2023-05-30T12:15:44.325Z,8.70
2023-05-30T12:18:12.771Z,8.70
2023-05-30T12:20:45.337Z,8.57
2023-05-30T12:23:13.757Z,8.47
2023-05-30T12:25:51.972Z,9.10
2023-05-30T12:28:20.109Z,8.80
2023-05-30T12:30:48.638Z,8.30
2023-05-30T12:33:18.018Z,8.37
2023-05-30T12:35:46.748Z,8.67
2023-05-30T12:38:17.341Z,9.23
2023-05-30T12:40:47.846Z,9.20
2023-05-30T12:43:20.785Z,8.90
2023-05-30T12:45:49.016Z,8.67
2023-05-30T12:48:17.120Z,8.77
2023-05-30T12:50:45.416Z,8.30
2023-05-30T12:53:13.456Z,8.67
2023-05-30T12:55:41.580Z,9.30
2023-05-30T12:58:09.582Z,9.40
2023-05-30T13:00:39.344Z,9.20
2023-05-30T13:03:07.778Z,8.50
2023-05-30T13:05:37.155Z,8.80
2023-05-30T13:08:05.203Z,8.27
2023-05-30T13:10:33.916Z,8.97
2023-05-30T13:13:02.247Z,8.40
2023-05-30T13:15:30.237Z,8.77
2023-05-30T13:17:59.668Z,8.60
2023-05-30T13:20:27.797Z,8.40
2023-05-30T13:22:56.167Z,8.50
2023-05-30T13:25:24.228Z,9.20
2023-05-30T13:27:52.392Z,8.73
2023-05-30T13:30:20.569Z,9.00
2023-05-30T13:32:49.596Z,9.23
2023-05-30T13:35:19.160Z,8.70
2023-05-30T13:37:47.361Z,9.00
2023-05-30T13:40:15.380Z,8.80
2023-05-30T13:42:43.398Z,9.10
2023-05-30T13:45:12.133Z,8.67
2023-05-30T13:47:40.190Z,8.67
2023-05-30T13:50:10.196Z,8.60
2023-05-30T13:52:39.780Z,8.70
2023-05-30T13:55:09.323Z,9.03
2023-05-30T13:57:37.455Z,8.80
2023-05-30T14:00:06.554Z,9.10
2023-05-30T14:02:34.646Z,11.70
2023-05-30T14:05:02.701Z,8.50
2023-05-30T14:07:31.115Z,8.60
2023-05-30T14:10:00.525Z,8.13
2023-05-30T14:12:28.906Z,9.27
2023-05-30T14:15:01.820Z,8.40
2023-05-30T14:17:29.879Z,8.80
2023-05-30T14:19:57.996Z,9.00
2023-05-30T14:22:26.038Z,9.10
2023-05-30T14:24:54.160Z,8.80
2023-05-30T14:27:23.562Z,9.00
2023-05-30T14:29:52.028Z,8.63
2023-05-30T14:32:20.089Z,9.33
2023-05-30T14:34:48.091Z,8.90
2023-05-30T14:37:16.156Z,8.70
2023-05-30T14:39:44.176Z,8.70
2023-05-30T14:42:12.459Z,8.70
2023-05-30T14:44:41.890Z,8.90
2023-05-30T14:47:10.002Z,8.80
2023-05-30T14:49:38.089Z,9.30
2023-05-30T14:52:07.369Z,8.87
2023-05-30T14:54:35.390Z,9.00
2023-05-30T14:57:03.736Z,8.73
2023-05-30T14:59:31.752Z,8.87
2023-05-30T15:02:01.889Z,9.00
2023-05-30T15:04:30.053Z,9.30
2023-05-30T15:06:58.207Z,9.03
2023-05-30T15:09:27.092Z,8.60
2023-05-30T15:11:55.137Z,8.57
2023-05-30T15:14:23.517Z,9.00
2023-05-30T15:16:51.630Z,8.90
2023-05-30T15:19:21.048Z,9.37
2023-05-30T15:21:49.466Z,8.67
2023-05-30T15:24:17.494Z,8.97
2023-05-30T15:26:45.489Z,8.80
2023-05-30T15:29:13.565Z,8.77
2023-05-30T15:31:41.713Z,8.50
2023-05-30T15:34:09.836Z,8.80
2023-05-30T15:36:39.175Z,8.80
2023-05-30T15:39:07.522Z,8.57
2023-05-30T15:41:35.621Z,9.10
2023-05-30T15:44:04.021Z,8.60
2023-05-30T15:46:32.071Z,8.60
2023-05-30T15:49:00.235Z,8.90
2023-05-30T15:51:29.214Z,9.03
2023-05-30T15:53:59.114Z,8.70
2023-05-30T15:56:28.039Z,8.50
2023-05-30T15:58:57.233Z,8.67
2023-05-30T16:01:26.081Z,8.63
2023-05-30T16:03:57.150Z,9.07
2023-05-30T16:06:26.196Z,8.80
2023-05-30T16:08:54.210Z,8.40
2023-05-30T16:11:23.553Z,8.63
2023-05-30T16:13:51.678Z,8.97
2023-05-30T16:16:19.740Z,8.73
2023-05-30T16:18:47.749Z,8.83
2023-05-30T16:21:15.876Z,9.10
2023-05-30T16:23:43.897Z,8.80
2023-05-30T16:26:12.096Z,8.80
2023-05-30T16:28:41.623Z,9.10
2023-05-30T16:31:10.352Z,8.90
2023-05-30T16:33:38.482Z,8.83
2023-05-30T16:36:09.246Z,9.00
2023-05-30T16:38:39.471Z,8.83
2023-05-30T16:41:13.723Z,8.80
2023-05-30T16:43:43.884Z,8.70
2023-05-30T16:46:12.416Z,9.20
2023-05-30T16:48:40.459Z,9.03
2023-05-30T16:51:08.657Z,8.90
2023-05-30T16:53:37.416Z,8.80
2023-05-30T16:56:15.662Z,8.80
2023-05-30T16:58:47.711Z,9.00
2023-05-30T17:01:15.765Z,9.00
2023-05-30T17:03:44.252Z,8.73
2023-05-30T17:06:14.514Z,8.30
2023-05-30T17:08:43.553Z,8.87
2023-05-30T17:11:13.007Z,8.83
2023-05-30T17:13:41.399Z,8.87
2023-05-30T17:16:10.763Z,8.77
2023-05-30T17:18:38.922Z,8.60
2023-05-30T17:21:07.321Z,8.20
2023-05-30T17:23:35.312Z,8.73
2023-05-30T17:26:03.918Z,8.90
2023-05-30T17:28:33.120Z,8.87
2023-05-30T17:31:01.584Z,8.80
2023-05-30T17:33:31.336Z,9.03
2023-05-30T17:35:59.479Z,9.20
2023-05-30T17:38:28.157Z,8.77
2023-05-30T17:40:56.189Z,8.77
2023-05-30T17:43:24.394Z,8.90
2023-05-30T17:45:52.653Z,8.60
2023-05-30T17:48:20.733Z,8.97
2023-05-30T17:50:51.049Z,8.80
2023-05-30T17:53:19.527Z,8.53
2023-05-30T17:55:47.806Z,8.97
2023-05-30T17:58:16.072Z,8.90
2023-05-30T18:00:47.126Z,9.00
2023-05-30T18:03:15.962Z,8.77
2023-05-30T18:05:44.026Z,9.20
2023-05-30T18:08:16.456Z,8.37
2023-05-30T18:10:46.263Z,9.00
2023-05-30T18:13:15.072Z,8.90
2023-05-30T18:15:45.264Z,8.60
2023-05-30T18:18:15.321Z,8.70
2023-05-30T18:20:43.832Z,8.70
2023-05-30T18:23:13.423Z,8.53
2023-05-30T18:25:42.454Z,8.80
2023-05-30T18:28:11.016Z,8.70
2023-05-30T18:30:40.440Z,8.50
2023-05-30T18:33:08.634Z,8.57
2023-05-30T18:35:36.816Z,8.60
2023-05-30T18:38:04.939Z,9.00
2023-05-30T18:40:34.312Z,8.90
2023-05-30T18:43:02.366Z,8.60
2023-05-30T18:45:30.712Z,8.60
2023-05-30T18:47:58.943Z,8.67
2023-05-30T18:50:27.396Z,9.33
2023-05-30T18:52:55.373Z,8.80
2023-05-30T18:55:25.272Z,8.80
2023-05-30T18:57:57.051Z,8.40
2023-05-30T19:00:25.552Z,8.80
2023-05-30T19:02:55.043Z,8.60
2023-05-30T19:05:23.289Z,8.53
2023-05-30T19:07:56.603Z,8.90
2023-05-30T19:10:24.992Z,9.00
2023-05-30T19:12:54.233Z,8.90
2023-05-30T19:15:24.172Z,8.67
2023-05-30T19:17:52.488Z,9.40
2023-05-30T19:20:20.658Z,8.80
2023-05-30T19:22:48.772Z,8.80
2023-05-30T19:25:17.669Z,8.77
2023-05-30T19:27:45.682Z,8.90
2023-05-30T19:30:14.026Z,8.70
2023-05-30T19:32:43.516Z,8.90
2023-05-30T19:35:14.138Z,8.90
2023-05-30T19:37:50.341Z,9.30
2023-05-30T19:40:18.650Z,8.57
2023-05-30T19:42:47.450Z,8.47
2023-05-30T19:45:15.556Z,8.87
2023-05-30T19:47:44.970Z,9.30
2023-05-30T19:50:13.329Z,9.17
2023-05-30T19:52:41.318Z,9.00
2023-05-30T19:55:09.980Z,9.00
2023-05-30T19:57:38.087Z,8.50
2023-05-30T20:00:08.251Z,8.90
2023-05-30T20:02:36.522Z,12.50
2023-05-30T20:05:11.904Z,8.70
2023-05-30T20:07:43.071Z,9.23
2023-05-30T20:10:11.812Z,9.10
2023-05-30T20:12:39.827Z,8.90
2023-05-30T20:15:09.011Z,9.20
2023-05-30T20:17:37.099Z,8.97
2023-05-30T20:20:08.500Z,9.00
2023-05-30T20:22:36.540Z,9.20
2023-05-30T20:25:08.439Z,9.10
2023-05-30T20:27:38.529Z,9.20
2023-05-30T20:30:08.616Z,9.20
2023-05-30T20:32:36.646Z,9.90
2023-05-30T20:35:06.744Z,9.17
2023-05-30T20:37:34.882Z,9.03
2023-05-30T20:40:03.520Z,9.00
2023-05-30T20:42:31.538Z,8.90
2023-05-30T20:44:59.526Z,8.80
2023-05-30T20:47:28.641Z,9.00
2023-05-30T20:49:56.783Z,9.17
2023-05-30T20:52:26.586Z,9.20
2023-05-30T20:54:54.615Z,9.50
2023-05-30T20:57:23.557Z,9.30
2023-05-30T20:59:51.603Z,8.87
2023-05-30T21:02:19.634Z,8.90
2023-05-30T21:04:47.884Z,9.03
2023-05-30T21:07:16.133Z,9.00
2023-05-30T21:09:45.581Z,9.17
2023-05-30T21:12:13.663Z,9.40
2023-05-30T21:14:41.786Z,9.03
2023-05-30T21:17:11.387Z,9.00
2023-05-30T21:19:39.640Z,8.83
2023-05-30T21:22:07.814Z,8.90
2023-05-30T21:24:35.919Z,9.10
2023-05-30T21:27:06.391Z,9.07
2023-05-30T21:29:34.954Z,9.30
2023-05-30T21:32:03.046Z,9.10
2023-05-30T21:34:31.811Z,8.90
2023-05-30T21:36:59.856Z,9.40
2023-05-30T21:39:27.831Z,9.27
2023-05-30T21:41:56.124Z,9.10
2023-05-30T21:44:25.667Z,8.93
2023-05-30T21:46:53.688Z,9.23
2023-05-30T21:49:21.699Z,9.00
2023-05-30T21:51:49.812Z,9.10
2023-05-30T21:54:37.134Z,9.20
2023-05-30T21:57:07.085Z,9.47
2023-05-30T21:59:37.419Z,9.23
2023-05-30T22:02:06.532Z,9.00
2023-05-30T22:04:35.624Z,9.20
2023-05-30T22:07:07.879Z,9.10
2023-05-30T22:09:36.656Z,9.30
2023-05-30T22:12:06.805Z,9.30
2023-05-30T22:14:38.600Z,9.13
2023-05-30T22:17:07.265Z,9.20
2023-05-30T22:19:35.344Z,9.00
2023-05-30T22:22:04.807Z,9.30
2023-05-30T22:24:37.068Z,9.30
2023-05-30T22:27:07.307Z,9.00
2023-05-30T22:29:36.705Z,9.20
2023-05-30T22:32:05.382Z,9.50
2023-05-30T22:34:33.576Z,9.40
2023-05-30T22:37:01.744Z,9.13
2023-05-30T22:39:30.752Z,9.50
2023-05-30T22:41:58.975Z,9.20
2023-05-30T22:44:26.968Z,9.30
2023-05-30T22:46:56.284Z,9.90
2023-05-30T22:49:24.254Z,9.30
2023-05-30T22:51:52.253Z,9.60
2023-05-30T22:54:20.419Z,9.20
2023-05-30T22:56:48.885Z,9.60
2023-05-30T22:59:16.938Z,9.40
2023-05-30T23:01:45.005Z,9.43
2023-05-30T23:04:14.429Z,9.30
2023-05-30T23:06:42.448Z,9.70
2023-05-30T23:09:10.608Z,9.83
2023-05-30T23:11:38.619Z,9.40
2023-05-30T23:14:07.054Z,9.60
2023-05-30T23:16:35.127Z,9.27
2023-05-30T23:19:03.130Z,9.43
2023-05-30T23:21:32.511Z,9.67
2023-05-30T23:24:00.853Z,10.00
2023-05-30T23:26:28.867Z,9.20
2023-05-30T23:28:56.986Z,9.43
2023-05-30T23:31:25.012Z,9.60
2023-05-30T23:33:53.045Z,9.33
2023-05-30T23:36:21.147Z,9.47
2023-05-30T23:38:50.489Z,9.50
2023-05-30T23:41:19.607Z,9.63
2023-05-30T23:43:47.814Z,9.60
2023-05-30T23:46:15.924Z,9.33
2023-05-30T23:48:44.610Z,9.43
2023-05-30T23:51:17.600Z,9.77
2023-05-30T23:53:45.822Z,9.40
2023-05-30T23:56:15.401Z,9.80
2023-05-30T23:58:43.655Z,9.70
